Airfield :
LOGIN :

Register | Disclaimer

   EN    FR    IT 

 










Legend :    VFR   Marginal VFR   IFR   Intensive IFR   Very Intensive IFR
Visi :
Ceiling :
>= 8 km
>= 3000ft
5 to 8 km
1000 to 3000 ft
1500m to 5 km
500 to 1000 ft
800 to 1500m
200 to 500 ft
< 800m
< 200 ft
Symbols :   Thunderstorms  Fog  Heavy snow  Heavy precipitations  Wind > 20 kt
SIGMETs :     Misc.  Thunderstorms  Icing  Turbulence  Mountain Waves  Volcanic Ashes







- Airport Elevation : 63 ft
- IATA code : BZM


EHWO - Woensdrecht Airbase

CURRENT METAR :
  • 131255Z AUTO 22011KT 9999 DZ FEW020 SCT044 BKN049 06/05 Q0997 BLU 22012G22KT 9999 FEW010 BKN045 TEMPO 4500 -RADZ SCT012 BKN045 RMK TS INFO NOT AVBL

EXPIRED METARs :
  • 131247Z AUTO 22011KT 180V250 9999 FEW011 SCT037 BKN047 06/05 Q0997 BLU 22012G22KT 9999 FEW010 BKN045 TEMPO 4500 -RADZ SCT012 BKN045
  • 131225Z AUTO 22010KT 190V250 9999 SCT007 BKN009 OVC010 05/05 Q0998 GRN 22014G25KT 9999 FEW010 BKN012 OVC016 BECMG FEW012 OVC018 RMK TS INFO NOT AVBL
  • 131207Z AUTO 22012KT 9999 SCT009 BKN011 OVC017 05/05 Q0998 GRN 20014G25KT 2500 RADZ BR FEW006 SCT008 OVC010 BECMG 9999 NSW FEW008 SCT012 BKN015 RMK TS INFO NOT AVBL
  • 131155Z AUTO 22013KT 200V260 9999 FEW006 SCT007 BKN010 05/05 Q0998 GRN 20014G25KT 2500 RADZ BR FEW006 SCT008 OVC010 BECMG 9999 NSW FEW008 SCT012 BKN015 RMK TS INFO NOT AVBL
  • 131134Z AUTO 22013KT 190V250 9999 FEW004 BKN005 OVC006 05/05 Q0998 YLO 20014G25KT 2500 RADZ BR FEW006 SCT008 OVC010 BECMG 9999 NSW FEW008 SCT012 BKN015
  • 131125Z AUTO 22014KT 180V250 2600 R25/2300D +DZRA FEW004 BKN005 OVC006 05/05 Q0998 YLO 20014G25KT 2500 RADZ BR FEW006 SCT008 OVC010 BECMG 9999 NSW FEW008 SCT012 BKN015
  • 131107Z AUTO 21012G23KT 160V250 3200 R25/P3000N DZ SCT005 BKN006 OVC008 05/05 Q0998 YLO 20014G25KT 2500 RADZ BR FEW006 SCT008 OVC010 BECMG 9999 NSW FEW008 SCT012 BKN015
  • 131055Z AUTO 21012G23KT 170V250 5000 DZ BKN006 BKN007 OVC009 05/04 Q0998 YLO 20014G24KT 3500 RADZ BR FEW006 SCT008 OVC010 BECMG 9999 NSW FEW008 SCT012 BKN015
  • 131039Z AUTO 21014G24KT 160V240 9999 BKN006 BKN007 OVC008 05/04 Q0998 YLO 20014G24KT 3500 RADZ BR FEW006 SCT008 OVC010 BECMG 9999 NSW FEW008 SCT012 BKN015
  • 131030Z AUTO 21013G23KT 160V250 9999 SCT006 BKN007 OVC008 05/04 Q0999 YLO 20014G24KT 3500 RADZ BR FEW006 SCT008 OVC010 BECMG 9999 NSW FEW008 SCT012 BKN015
  • 131025Z AUTO 21013G27KT 160V240 9999 SCT006 BKN007 BKN008 05/04 Q0999 REDZ YLO 20014G24KT 3500 RADZ BR FEW006 SCT008 OVC010 BECMG 9999 NSW FEW008 SCT012 BKN015
  • 131011Z AUTO 20014G26KT 160V240 9000 BR SCT006 BKN007 OVC009 05/04 Q0999 YLO 20014G24KT 3500 RADZ BR FEW006 SCT008 OVC010 BECMG 9999 NSW FEW008 SCT012 BKN015

TAF TAF EHWO
Valid from the 13 at 10:00 until the 13 at 22:00 UTC


130914Z 1310/1322 20014G24KT 9999 FEW005 BKN006
TEMPO 1310/1312 4000 RA SCT004 BKN005
PROB30
TEMPO 1310/1312 3000 RADZ SCT003 BKN004
BECMG 1312/1314 21010G20KT SCT015 BKN020
TEMPO 1313/1322 4000 SHRAGS SCT006 BKN012 SCT016CB
PROB40
TEMPO 1318/1321 26020G34KT 2500 TSRAGS SCT005 BKN008 SCT015CB
BECMG 1321/1322 23010G20KT SCT020
No reported NOTAMs for that airfield.



MET'MAP, your aeronautical weather chart ! - Copyright ORBIFLY December 2007 - Disclaimer

ORBIFLY MET'MAP TEAM :

Programming & Development : Alexandra Zaïnal
Concept & Development : Baudouin d'Aumeries
Co-Development & Prog : Marc-Olivier Méhu
Technical & hardware support : Manuel Goepfert

Contact : metmap@orbifly.com




SOURCES & CREDITS :

   NOAA